createdAt,value
2018-01-15T00:00:31.073Z,0
2018-01-15T00:01:40.116Z,0
2018-01-15T00:02:49.168Z,0
2018-01-15T00:03:58.210Z,0
2018-01-15T00:05:07.259Z,0
2018-01-15T00:06:15.773Z,0
2018-01-15T00:07:24.550Z,0
2018-01-15T00:08:33.070Z,0
2018-01-15T00:09:42.126Z,0
2018-01-15T00:10:50.653Z,0
2018-01-15T00:11:59.439Z,0
2018-01-15T00:13:08.494Z,0
2018-01-15T00:14:17.544Z,0
2018-01-15T00:15:26.070Z,0
2018-01-15T00:16:35.139Z,0
2018-01-15T00:17:43.662Z,0
2018-01-15T00:18:52.451Z,0
2018-01-15T00:20:00.979Z,0
2018-01-15T00:21:09.763Z,0
2018-01-15T00:22:18.291Z,0
2018-01-15T00:23:26.817Z,0
2018-01-15T00:24:35.605Z,0
2018-01-15T00:25:44.130Z,0
2018-01-15T00:26:52.653Z,0
2018-01-15T00:28:01.448Z,0
2018-01-15T00:29:09.970Z,0
2018-01-15T00:30:18.498Z,0
2018-01-15T00:31:27.029Z,0
2018-01-15T00:32:35.814Z,0
2018-01-15T00:33:44.607Z,0
2018-01-15T00:34:53.396Z,0
2018-01-15T00:36:02.198Z,0
2018-01-15T00:37:11.252Z,0
2018-01-15T00:38:20.306Z,0
2018-01-15T00:39:29.098Z,0
2018-01-15T00:40:37.887Z,0
2018-01-15T00:41:46.943Z,0
2018-01-15T00:42:55.469Z,0
2018-01-15T00:44:03.990Z,0
2018-01-15T00:45:12.519Z,0
2018-01-15T00:46:21.310Z,0
2018-01-15T00:47:30.101Z,0
2018-01-15T00:48:39.420Z,0
2018-01-15T00:49:48.476Z,0
2018-01-15T00:50:57.000Z,0
2018-01-15T00:52:05.526Z,0
2018-01-15T00:53:14.052Z,0
2018-01-15T00:54:23.105Z,0
2018-01-15T00:55:31.633Z,0
2018-01-15T00:56:40.160Z,0
2018-01-15T00:57:48.953Z,0
2018-01-15T00:58:58.007Z,0
2018-01-15T01:00:06.533Z,0
2018-01-15T01:01:15.323Z,0
2018-01-15T01:02:24.111Z,0
2018-01-15T01:03:32.903Z,0
2018-01-15T01:04:41.425Z,0
2018-01-15T01:05:50.750Z,0
2018-01-15T01:07:00.068Z,0
2018-01-15T01:08:09.123Z,0
2018-01-15T01:09:17.646Z,0
2018-01-15T01:10:26.171Z,0
2018-01-15T01:11:34.691Z,0
2018-01-15T01:12:43.741Z,0
2018-01-15T01:13:52.535Z,0
2018-01-15T01:15:01.326Z,0
2018-01-15T01:16:09.844Z,0
2018-01-15T01:17:18.895Z,0
2018-01-15T01:18:27.684Z,0
2018-01-15T01:19:36.998Z,0
2018-01-15T01:20:45.791Z,0
2018-01-15T01:21:54.580Z,0
2018-01-15T01:23:03.373Z,0
2018-01-15T01:24:12.427Z,0
2018-01-15T01:25:21.486Z,0
2018-01-15T01:26:30.276Z,0
2018-01-15T01:27:39.327Z,0
2018-01-15T01:28:48.381Z,0
2018-01-15T01:29:57.172Z,0
2018-01-15T01:31:06.229Z,0
2018-01-15T01:32:15.279Z,0
2018-01-15T01:33:23.803Z,0
2018-01-15T01:34:32.590Z,0
2018-01-15T01:35:41.113Z,0
2018-01-15T01:36:50.167Z,0
2018-01-15T01:37:58.954Z,0
2018-01-15T01:39:08.278Z,0
2018-01-15T01:40:17.063Z,0
2018-01-15T01:41:25.858Z,0
2018-01-15T01:42:34.910Z,0
2018-01-15T01:43:43.433Z,0
2018-01-15T01:44:51.959Z,0
2018-01-15T01:46:00.481Z,0
2018-01-15T01:47:09.267Z,0
2018-01-15T01:48:18.056Z,0
2018-01-15T01:49:26.846Z,0
2018-01-15T01:50:36.163Z,0
2018-01-15T01:51:44.953Z,0
2018-01-15T01:52:53.746Z,0
2018-01-15T01:54:02.625Z,0
2018-01-15T01:55:11.928Z,0
2018-01-15T01:56:20.983Z,0
2018-01-15T01:57:29.772Z,0
2018-01-15T01:58:38.292Z,0
2018-01-15T01:59:47.084Z,0
2018-01-15T02:00:55.608Z,0
2018-01-15T02:02:04.407Z,0
2018-01-15T02:03:13.461Z,0
2018-01-15T02:04:22.514Z,0
2018-01-15T02:05:31.039Z,0
2018-01-15T02:06:40.092Z,0
2018-01-15T02:07:49.142Z,0
2018-01-15T02:08:58.191Z,0
2018-01-15T02:10:06.716Z,0
2018-01-15T02:11:15.504Z,0
2018-01-15T02:12:24.555Z,0
2018-01-15T02:13:33.342Z,0
2018-01-15T02:14:41.868Z,0
2018-01-15T02:15:50.704Z,0
2018-01-15T02:16:59.487Z,0
2018-01-15T02:18:08.009Z,0
2018-01-15T02:19:17.074Z,0
2018-01-15T02:20:26.127Z,0
2018-01-15T02:21:34.651Z,0
2018-01-15T02:22:43.171Z,0
2018-01-15T02:23:51.954Z,0
2018-01-15T02:25:01.274Z,0
2018-01-15T02:26:09.796Z,0
2018-01-15T02:27:18.583Z,0
2018-01-15T02:28:27.109Z,0
2018-01-15T02:29:35.899Z,0
2018-01-15T02:30:44.959Z,0
2018-01-15T02:31:53.484Z,0
2018-01-15T02:33:02.540Z,0
2018-01-15T02:34:11.066Z,0
2018-01-15T02:35:19.590Z,0
2018-01-15T02:36:28.112Z,0
2018-01-15T02:37:36.636Z,0
2018-01-15T02:38:45.430Z,0
2018-01-15T02:39:54.217Z,0
2018-01-15T02:41:03.277Z,0
2018-01-15T02:42:11.800Z,0
2018-01-15T02:43:20.587Z,0
2018-01-15T02:44:29.379Z,0
2018-01-15T02:45:37.903Z,0
2018-01-15T02:46:46.963Z,0
2018-01-15T02:47:55.488Z,0
2018-01-15T02:49:04.284Z,0
2018-01-15T02:50:13.341Z,0
2018-01-15T02:51:21.865Z,0
2018-01-15T02:52:30.915Z,0
2018-01-15T02:53:39.711Z,0
2018-01-15T02:54:48.502Z,0
2018-01-15T02:55:57.026Z,0
2018-01-15T02:57:05.554Z,0
2018-01-15T02:58:14.080Z,0
2018-01-15T02:59:22.873Z,0
2018-01-15T03:00:31.662Z,0
2018-01-15T03:01:40.188Z,0
2018-01-15T03:02:49.246Z,0
2018-01-15T03:03:57.768Z,0
2018-01-15T03:05:06.559Z,0
2018-01-15T03:06:15.088Z,0
2018-01-15T03:07:23.880Z,0
2018-01-15T03:08:32.931Z,0
2018-01-15T03:09:41.455Z,0
2018-01-15T03:10:50.510Z,0
2018-01-15T03:11:59.298Z,0
2018-01-15T03:13:08.087Z,0
2018-01-15T03:14:16.873Z,0
2018-01-15T03:15:25.395Z,0
2018-01-15T03:16:33.921Z,0
2018-01-15T03:17:42.443Z,0
2018-01-15T03:18:51.496Z,0
2018-01-15T03:20:00.284Z,0
2018-01-15T03:21:08.815Z,0
2018-01-15T03:22:17.606Z,0
2018-01-15T03:23:26.719Z,0
2018-01-15T03:24:35.711Z,0
2018-01-15T03:25:45.033Z,0
2018-01-15T03:26:53.559Z,0
2018-01-15T03:28:02.617Z,0
2018-01-15T03:29:11.140Z,0
2018-01-15T03:30:19.666Z,0
2018-01-15T03:31:28.457Z,0
2018-01-15T03:32:37.512Z,0
2018-01-15T03:33:46.300Z,0
2018-01-15T03:34:55.353Z,0
2018-01-15T03:36:04.139Z,0
2018-01-15T03:37:12.930Z,0
2018-01-15T03:38:21.984Z,0
2018-01-15T03:39:30.774Z,0
2018-01-15T03:40:39.569Z,0
2018-01-15T03:41:48.353Z,0
2018-01-15T03:42:56.877Z,0
2018-01-15T03:44:05.400Z,0
2018-01-15T03:45:14.457Z,0
2018-01-15T03:46:23.246Z,0
2018-01-15T03:47:31.769Z,0
2018-01-15T03:48:40.563Z,0
2018-01-15T03:49:49.353Z,0
2018-01-15T03:50:58.140Z,0
2018-01-15T03:52:07.033Z,0
2018-01-15T03:53:15.559Z,0
2018-01-15T03:54:24.082Z,0
2018-01-15T03:55:33.137Z,0
2018-01-15T03:56:41.928Z,0
2018-01-15T03:57:50.455Z,0
2018-01-15T03:58:59.508Z,0
2018-01-15T04:00:08.302Z,0
2018-01-15T04:01:17.357Z,0
2018-01-15T04:02:26.147Z,0
2018-01-15T04:03:35.209Z,0
2018-01-15T04:04:43.998Z,0
2018-01-15T04:05:52.525Z,0
2018-01-15T04:07:01.851Z,0
2018-01-15T04:08:10.640Z,0
2018-01-15T04:09:19.165Z,0
2018-01-15T04:10:28.219Z,0
2018-01-15T04:11:37.012Z,0
2018-01-15T04:12:45.806Z,0
2018-01-15T04:13:55.123Z,0
2018-01-15T04:15:04.180Z,0
2018-01-15T04:16:13.241Z,0
2018-01-15T04:17:21.770Z,0
2018-01-15T04:18:30.559Z,0
2018-01-15T04:19:39.357Z,0
2018-01-15T04:20:48.151Z,0
2018-01-15T04:21:56.939Z,0
2018-01-15T04:23:05.465Z,0
2018-01-15T04:24:14.252Z,0
2018-01-15T04:25:23.044Z,0
2018-01-15T04:26:32.100Z,0
2018-01-15T04:27:40.891Z,0
2018-01-15T04:28:49.681Z,0
2018-01-15T04:29:58.523Z,0
2018-01-15T04:31:07.848Z,0
2018-01-15T04:32:16.641Z,0
2018-01-15T04:33:25.167Z,0
2018-01-15T04:34:33.958Z,0
2018-01-15T04:35:42.748Z,0
2018-01-15T04:36:51.539Z,0
2018-01-15T04:38:00.064Z,0
2018-01-15T04:39:08.589Z,0
2018-01-15T04:40:17.114Z,0
2018-01-15T04:41:26.178Z,0
2018-01-15T04:42:34.963Z,0
2018-01-15T04:43:43.747Z,0
2018-01-15T04:44:52.275Z,0
2018-01-15T04:46:00.798Z,0
2018-01-15T04:47:09.320Z,0
2018-01-15T04:48:18.114Z,0
2018-01-15T04:49:27.435Z,0
2018-01-15T04:50:36.223Z,0
2018-01-15T04:51:45.020Z,0
2018-01-15T04:52:53.545Z,0
2018-01-15T04:54:02.337Z,0
2018-01-15T04:55:11.126Z,0
2018-01-15T04:56:20.182Z,0
2018-01-15T04:57:28.974Z,0
2018-01-15T04:58:37.497Z,0
2018-01-15T04:59:46.286Z,0
2018-01-15T05:00:55.076Z,0
2018-01-15T05:02:04.130Z,0
2018-01-15T05:03:13.195Z,0
2018-01-15T05:04:21.978Z,0
2018-01-15T05:05:30.502Z,0
2018-01-15T05:06:39.294Z,0
2018-01-15T05:07:48.363Z,0
2018-01-15T05:08:57.149Z,0
2018-01-15T05:10:05.936Z,0
2018-01-15T05:11:15.002Z,0
2018-01-15T05:12:23.790Z,0
2018-01-15T05:13:32.574Z,0
2018-01-15T05:14:41.627Z,0
2018-01-15T05:15:50.420Z,0
2018-01-15T05:16:59.210Z,0
2018-01-15T05:18:08.324Z,0
2018-01-15T05:19:17.393Z,0
2018-01-15T05:20:26.440Z,0
2018-01-15T05:21:35.227Z,0
2018-01-15T05:22:44.021Z,0
2018-01-15T05:23:52.809Z,0
2018-01-15T05:25:01.603Z,0
2018-01-15T05:26:10.393Z,0
2018-01-15T05:27:19.185Z,0
2018-01-15T05:28:28.282Z,0
2018-01-15T05:29:36.808Z,0
2018-01-15T05:30:45.867Z,0
2018-01-15T05:31:54.396Z,0
2018-01-15T05:33:03.189Z,0
2018-01-15T05:34:12.245Z,0
2018-01-15T05:35:21.299Z,0
2018-01-15T05:36:30.618Z,0
2018-01-15T05:37:39.408Z,0
2018-01-15T05:38:48.199Z,0
2018-01-15T05:39:56.991Z,0
2018-01-15T05:41:05.515Z,0
2018-01-15T05:42:14.307Z,0
2018-01-15T05:43:23.120Z,0
2018-01-15T05:44:31.909Z,0
2018-01-15T05:45:40.698Z,0
2018-01-15T05:46:49.224Z,0
2018-01-15T05:47:57.750Z,0
2018-01-15T05:49:06.278Z,0
2018-01-15T05:50:15.063Z,0
2018-01-15T05:51:23.854Z,0
2018-01-15T05:52:32.646Z,0
2018-01-15T05:53:41.171Z,0
2018-01-15T05:54:49.962Z,0
2018-01-15T05:55:58.750Z,0
2018-01-15T05:57:07.539Z,0
2018-01-15T05:58:16.334Z,0
2018-01-15T05:59:24.856Z,0
2018-01-15T06:00:33.382Z,0
2018-01-15T06:01:41.907Z,0
2018-01-15T06:02:50.699Z,0
2018-01-15T06:03:59.221Z,0
2018-01-15T06:05:07.746Z,0
2018-01-15T06:06:16.539Z,0
2018-01-15T06:07:25.742Z,0
2018-01-15T06:08:34.283Z,0
2018-01-15T06:09:42.892Z,0
2018-01-15T06:10:52.043Z,0
2018-01-15T06:12:01.005Z,0
2018-01-15T06:13:09.539Z,0
2018-01-15T06:14:18.074Z,0
2018-01-15T06:15:26.698Z,0
2018-01-15T06:16:35.422Z,0
2018-01-15T06:17:43.959Z,0
2018-01-15T06:18:52.783Z,0
2018-01-15T06:20:01.985Z,0
2018-01-15T06:21:10.613Z,0
2018-01-15T06:22:19.421Z,0
2018-01-15T06:23:28.709Z,0
2018-01-15T06:24:37.526Z,0
2018-01-15T06:25:46.370Z,0
2018-01-15T06:26:55.440Z,0
2018-01-15T06:28:04.775Z,0
2018-01-15T06:29:13.809Z,0
2018-01-15T06:30:22.368Z,0
2018-01-15T06:31:31.552Z,0
2018-01-15T06:32:40.094Z,0
2018-01-15T06:33:48.918Z,0
2018-01-15T06:34:57.726Z,0
2018-01-15T06:36:06.786Z,0
2018-01-15T06:37:15.935Z,0
2018-01-15T06:38:24.727Z,0
2018-01-15T06:39:33.518Z,0
2018-01-15T06:40:42.305Z,0
2018-01-15T06:41:50.831Z,0
2018-01-15T06:42:59.620Z,0
2018-01-15T06:44:08.786Z,0
2018-01-15T06:45:17.595Z,0
2018-01-15T06:51:47.473Z,64
2018-01-15T06:52:56.305Z,68
2018-01-15T06:54:04.923Z,72
2018-01-15T06:55:14.072Z,72
2018-01-15T06:56:22.864Z,72
2018-01-15T06:57:31.389Z,72
2018-01-15T06:58:40.453Z,68
2018-01-15T06:59:49.507Z,68
2018-01-15T07:00:58.033Z,68
2018-01-15T07:02:06.828Z,72
2018-01-15T07:03:15.885Z,72
2018-01-15T07:04:24.678Z,72
2018-01-15T07:05:34.000Z,72
2018-01-15T07:06:42.790Z,72
2018-01-15T07:07:51.846Z,72
2018-01-15T07:09:00.373Z,76
2018-01-15T07:10:08.898Z,76
2018-01-15T07:11:17.953Z,80
2018-01-15T07:12:26.750Z,80
2018-01-15T07:13:35.540Z,80
2018-01-15T07:14:44.329Z,80
2018-01-15T07:15:52.854Z,84
2018-01-15T07:17:01.380Z,84
2018-01-15T07:18:10.440Z,84
2018-01-15T07:19:19.231Z,88
2018-01-15T07:20:28.019Z,88
2018-01-15T07:21:36.811Z,92
2018-01-15T07:22:45.334Z,92
2018-01-15T07:23:53.860Z,92
2018-01-15T07:25:02.651Z,100
2018-01-15T07:26:11.442Z,104
2018-01-15T07:27:19.970Z,108
2018-01-15T07:28:28.759Z,116
2018-01-15T07:29:37.292Z,112
2018-01-15T07:30:45.818Z,116
2018-01-15T07:31:54.345Z,120
2018-01-15T07:33:02.873Z,128
2018-01-15T07:34:11.664Z,128
2018-01-15T07:35:20.189Z,136
2018-01-15T07:36:28.712Z,144
2018-01-15T07:37:37.768Z,152
2018-01-15T07:38:46.831Z,156
2018-01-15T07:39:55.355Z,160
2018-01-15T07:41:03.883Z,164
2018-01-15T07:42:12.675Z,168
2018-01-15T07:43:21.200Z,176
2018-01-15T07:44:29.999Z,180
2018-01-15T07:45:39.056Z,188
2018-01-15T07:46:47.582Z,188
2018-01-15T07:47:56.108Z,196
2018-01-15T07:49:04.636Z,200
2018-01-15T07:50:13.956Z,208
2018-01-15T07:51:22.792Z,216
2018-01-15T07:52:31.318Z,240
2018-01-15T07:53:40.108Z,256
2018-01-15T07:54:48.900Z,256
2018-01-15T07:55:57.428Z,252
2018-01-15T07:57:05.953Z,252
2018-01-15T07:58:14.744Z,240
2018-01-15T07:59:23.538Z,236
2018-01-15T08:00:32.599Z,232
2018-01-15T08:01:41.123Z,232
2018-01-15T08:02:49.914Z,236
2018-01-15T08:03:58.438Z,244
2018-01-15T08:05:07.493Z,256
2018-01-15T08:06:16.285Z,260
2018-01-15T08:07:24.815Z,280
2018-01-15T08:08:33.339Z,300
2018-01-15T08:09:41.869Z,320
2018-01-15T08:10:50.928Z,356
2018-01-15T08:11:59.718Z,364
2018-01-15T08:13:08.252Z,388
2018-01-15T08:14:17.043Z,412
2018-01-15T08:15:25.571Z,480
2018-01-15T08:16:34.096Z,572
2018-01-15T08:17:43.151Z,632
2018-01-15T08:18:51.952Z,672
2018-01-15T08:20:00.748Z,740
2018-01-15T08:21:09.813Z,780
2018-01-15T08:22:18.879Z,800
2018-01-15T08:23:27.663Z,772
2018-01-15T08:24:36.722Z,788
2018-01-15T08:25:45.244Z,828
2018-01-15T08:26:54.566Z,832
2018-01-15T08:28:03.092Z,856
2018-01-15T08:29:11.612Z,820
2018-01-15T08:30:20.409Z,868
2018-01-15T08:31:28.938Z,884
2018-01-15T08:32:38.231Z,904
2018-01-15T08:33:47.362Z,892
2018-01-15T08:34:56.688Z,944
2018-01-15T08:36:05.215Z,976
2018-01-15T08:37:13.741Z,1048
2018-01-15T08:38:22.534Z,1128
2018-01-15T08:39:31.116Z,1164
2018-01-15T08:40:39.623Z,1200
2018-01-15T08:41:48.726Z,1184
2018-01-15T08:42:57.514Z,1272
2018-01-15T08:44:06.307Z,1276
2018-01-15T08:45:15.102Z,1364
2018-01-15T08:46:23.627Z,1388
2018-01-15T08:47:32.159Z,1416
2018-01-15T08:48:40.962Z,1372
2018-01-15T08:49:49.485Z,1400
2018-01-15T08:50:58.276Z,1380
2018-01-15T08:52:06.800Z,1392
2018-01-15T08:53:15.327Z,1276
2018-01-15T08:54:23.857Z,1220
2018-01-15T08:55:32.383Z,1280
2018-01-15T08:56:41.451Z,1204
2018-01-15T08:57:49.985Z,1284
2018-01-15T08:58:59.038Z,1232
2018-01-15T09:00:07.829Z,1372
2018-01-15T09:01:17.018Z,1348
2018-01-15T09:02:26.344Z,1260
2018-01-15T09:03:35.134Z,1308
2018-01-15T09:04:43.950Z,1280
2018-01-15T09:05:52.744Z,1336
2018-01-15T09:07:01.268Z,1244
2018-01-15T09:08:10.326Z,1208
2018-01-15T09:09:18.853Z,1280
2018-01-15T09:10:27.655Z,1444
2018-01-15T09:11:36.451Z,1512
2018-01-15T09:12:45.244Z,1592
2018-01-15T09:13:54.296Z,1864
2018-01-15T09:15:03.426Z,1852
2018-01-15T09:16:12.202Z,1940
2018-01-15T09:17:21.258Z,2000
2018-01-15T09:18:29.786Z,1920
2018-01-15T09:19:38.611Z,2340
2018-01-15T09:20:47.407Z,1916
2018-01-15T09:21:56.195Z,2108
2018-01-15T09:23:04.985Z,2180
2018-01-15T09:24:13.513Z,1808
2018-01-15T09:25:22.304Z,2160
2018-01-15T09:26:31.095Z,2312
2018-01-15T09:27:39.899Z,1980
2018-01-15T09:28:48.958Z,1960
2018-01-15T09:29:57.477Z,2196
2018-01-15T09:31:06.535Z,2404
2018-01-15T09:32:15.589Z,2336
2018-01-15T09:33:24.379Z,2508
2018-01-15T09:34:33.173Z,2664
2018-01-15T09:35:42.226Z,2740
2018-01-15T09:36:50.753Z,2752
2018-01-15T09:37:59.357Z,2728
2018-01-15T09:39:09.931Z,2688
2018-01-15T09:40:19.462Z,2660
2018-01-15T09:41:28.997Z,2656
2018-01-15T09:42:38.766Z,2676
2018-01-15T09:43:47.612Z,2692
2018-01-15T09:44:57.096Z,2692
2018-01-15T09:46:06.357Z,2688
2018-01-15T09:47:15.254Z,2688
2018-01-15T09:48:24.758Z,2708
2018-01-15T09:49:33.366Z,2748
2018-01-15T09:50:41.894Z,2808
2018-01-15T09:51:51.478Z,2892
2018-01-15T09:53:00.272Z,2948
2018-01-15T09:54:09.068Z,2948
2018-01-15T09:55:17.860Z,2884
2018-01-15T09:56:26.385Z,2768
2018-01-15T09:57:35.444Z,2636
2018-01-15T09:58:44.238Z,2528
2018-01-15T09:59:53.034Z,2464
2018-01-15T10:01:02.361Z,2436
2018-01-15T10:02:11.153Z,2408
2018-01-15T10:03:20.024Z,2344
2018-01-15T10:04:29.111Z,2240
2018-01-15T10:05:37.903Z,2152
2018-01-15T10:06:46.435Z,2136
2018-01-15T10:07:54.969Z,2208
2018-01-15T10:09:03.814Z,2392
2018-01-15T10:10:12.614Z,2672
2018-01-15T10:11:21.413Z,3008
2018-01-15T10:12:30.736Z,3320
2018-01-15T10:13:39.799Z,3572
2018-01-15T10:14:48.613Z,3740
2018-01-15T10:15:57.674Z,3828
2018-01-15T10:17:06.736Z,3784
2018-01-15T10:18:15.525Z,3688
2018-01-15T10:19:24.319Z,3552
2018-01-15T10:20:32.844Z,3460
2018-01-15T10:21:41.374Z,3384
2018-01-15T10:22:50.166Z,3360
2018-01-15T10:23:58.852Z,3304
2018-01-15T10:25:07.652Z,3244
2018-01-15T10:26:16.182Z,3252
2018-01-15T10:27:24.972Z,3280
2018-01-15T10:28:34.289Z,3352
2018-01-15T10:29:43.079Z,3388
2018-01-15T10:30:51.607Z,3376
2018-01-15T10:32:00.135Z,3312
2018-01-15T10:33:09.199Z,3296
2018-01-15T10:34:18.279Z,3356
2018-01-15T10:35:26.826Z,3480
2018-01-15T10:36:35.885Z,3576
2018-01-15T10:37:44.409Z,3648
2018-01-15T10:38:52.947Z,3716
2018-01-15T10:40:01.472Z,3768
2018-01-15T10:41:10.272Z,3800
2018-01-15T10:42:19.332Z,3864
2018-01-15T10:43:28.127Z,3936
2018-01-15T10:44:36.656Z,3936
2018-01-15T10:45:45.450Z,3832
2018-01-15T10:46:54.242Z,3784
2018-01-15T10:48:03.033Z,3784
2018-01-15T10:49:11.604Z,3756
2018-01-15T10:50:20.663Z,3720
2018-01-15T10:51:29.460Z,3668
2018-01-15T10:52:38.252Z,3652
2018-01-15T10:53:47.317Z,3624
2018-01-15T10:54:55.852Z,3532
2018-01-15T10:56:04.391Z,3444
2018-01-15T10:57:13.486Z,3392
2018-01-15T10:58:22.259Z,3280
2018-01-15T10:59:30.799Z,3196
2018-01-15T11:00:39.597Z,3204
2018-01-15T11:01:48.663Z,3140
2018-01-15T11:02:57.191Z,2996
2018-01-15T11:04:05.987Z,2988
2018-01-15T11:05:14.780Z,2884
2018-01-15T11:06:23.580Z,2736
2018-01-15T11:07:32.104Z,2648
2018-01-15T11:08:40.633Z,2480
2018-01-15T11:09:49.161Z,2476
2018-01-15T11:10:59.796Z,2420
2018-01-15T11:12:08.488Z,2576
2018-01-15T11:13:17.318Z,2964
2018-01-15T11:14:26.113Z,3284
2018-01-15T11:15:34.639Z,3512
2018-01-15T11:16:43.436Z,3724
2018-01-15T11:17:52.274Z,3796
2018-01-15T11:19:01.032Z,3864
2018-01-15T11:20:09.828Z,3916
2018-01-15T11:21:18.623Z,3892
2018-01-15T11:22:27.679Z,3856
2018-01-15T11:23:37.012Z,3904
2018-01-15T11:24:46.167Z,4008
2018-01-15T11:25:54.963Z,4032
2018-01-15T11:27:04.024Z,3976
2018-01-15T11:28:12.864Z,3876
2018-01-15T11:29:21.928Z,4076
2018-01-15T11:30:30.719Z,4092
2018-01-15T11:31:39.246Z,3984
2018-01-15T11:32:47.776Z,3696
2018-01-15T11:33:56.303Z,3416
2018-01-15T11:35:05.355Z,3372
2018-01-15T11:36:14.152Z,3124
2018-01-15T11:37:22.681Z,2848
2018-01-15T11:38:31.478Z,2892
2018-01-15T11:39:40.797Z,3236
2018-01-15T11:40:49.591Z,3416
2018-01-15T11:41:58.623Z,2788
2018-01-15T11:43:08.269Z,2560
2018-01-15T11:44:17.155Z,2508
2018-01-15T11:45:25.945Z,2812
2018-01-15T11:46:35.263Z,2684
2018-01-15T11:47:43.790Z,2204
2018-01-15T11:48:52.317Z,2808
2018-01-15T11:50:01.108Z,2320
2018-01-15T11:51:09.634Z,2680
2018-01-15T11:52:18.165Z,2588
2018-01-15T11:53:26.692Z,2300
2018-01-15T11:54:35.483Z,2416
2018-01-15T11:55:44.535Z,2712
2018-01-15T11:56:53.327Z,2928
2018-01-15T11:58:01.854Z,2980
2018-01-15T11:59:10.648Z,2784
2018-01-15T12:00:19.176Z,2924
2018-01-15T12:01:27.704Z,3116
2018-01-15T12:02:36.496Z,2496
2018-01-15T12:03:45.020Z,2992
2018-01-15T12:04:53.552Z,2892
2018-01-15T12:06:02.344Z,2968
2018-01-15T12:07:10.870Z,3144
2018-01-15T12:08:19.665Z,3060
2018-01-15T12:09:28.456Z,2936
2018-01-15T12:10:37.533Z,2700
2018-01-15T12:11:46.329Z,2776
2018-01-15T12:12:55.119Z,2788
2018-01-15T12:14:04.444Z,2724
2018-01-15T12:15:12.987Z,3036
2018-01-15T12:16:22.095Z,3048
2018-01-15T12:17:31.153Z,2992
2018-01-15T12:18:40.225Z,2932
2018-01-15T12:19:48.764Z,2920
2018-01-15T12:20:57.830Z,3260
2018-01-15T12:22:06.648Z,2648
2018-01-15T12:23:15.484Z,2940
2018-01-15T12:24:24.540Z,2992
2018-01-15T12:25:33.346Z,3148
2018-01-15T12:26:42.140Z,3136
2018-01-15T12:27:51.632Z,2812
2018-01-15T12:29:00.556Z,3804
2018-01-15T12:30:09.895Z,3444
2018-01-15T12:31:18.425Z,3268
2018-01-15T12:32:27.486Z,3452
2018-01-15T12:33:36.285Z,2696
2018-01-15T12:34:44.813Z,2776
2018-01-15T12:35:54.173Z,2768
2018-01-15T12:37:03.228Z,2044
2018-01-15T12:38:11.761Z,1884
2018-01-15T12:39:20.561Z,1688
2018-01-15T12:40:29.090Z,1448
2018-01-15T12:41:37.882Z,1436
2018-01-15T12:42:46.683Z,1328
2018-01-15T12:43:55.736Z,1324
2018-01-15T12:45:04.529Z,1280
2018-01-15T12:46:13.324Z,1296
2018-01-15T12:47:21.893Z,1576
2018-01-15T12:48:30.986Z,1408
2018-01-15T12:49:39.522Z,1316
2018-01-15T12:50:48.050Z,1188
2018-01-15T12:51:56.843Z,1040
2018-01-15T12:53:05.373Z,1068
2018-01-15T12:54:13.908Z,1000
2018-01-15T12:55:22.432Z,964
2018-01-15T12:56:31.225Z,1080
2018-01-15T12:57:39.752Z,1108
2018-01-15T12:58:48.547Z,1308
2018-01-15T12:59:57.076Z,1496
2018-01-15T13:01:05.921Z,1392
2018-01-15T13:02:14.717Z,1232
2018-01-15T13:03:23.509Z,1092
2018-01-15T13:04:32.303Z,1256
2018-01-15T13:05:40.831Z,1132
2018-01-15T13:06:49.457Z,1228
2018-01-15T13:07:58.509Z,1056
2018-01-15T13:09:07.308Z,1100
2018-01-15T13:10:16.369Z,960
2018-01-15T13:11:24.898Z,824
2018-01-15T13:12:33.690Z,696
2018-01-15T13:13:42.482Z,744
2018-01-15T13:14:51.274Z,836
2018-01-15T13:15:59.802Z,820
2018-01-15T13:17:08.593Z,720
2018-01-15T13:18:17.918Z,824
2018-01-15T13:19:26.454Z,840
2018-01-15T13:20:35.541Z,1016
2018-01-15T13:21:44.600Z,1064
2018-01-15T13:22:53.394Z,1472
2018-01-15T13:24:01.920Z,1340
2018-01-15T13:25:10.715Z,1464
2018-01-15T13:26:19.513Z,1532
2018-01-15T13:27:28.296Z,1516
2018-01-15T13:28:36.822Z,1772
2018-01-15T13:29:45.616Z,2008
2018-01-15T13:30:54.409Z,2140
2018-01-15T13:32:02.936Z,2296
2018-01-15T13:33:11.727Z,2416
2018-01-15T13:34:20.254Z,2560
2018-01-15T13:35:28.788Z,3164
2018-01-15T13:36:37.859Z,3264
2018-01-15T13:37:46.687Z,2956
2018-01-15T13:38:55.453Z,2888
2018-01-15T13:40:03.991Z,2776
2018-01-15T13:41:12.790Z,2612
2018-01-15T13:42:21.327Z,2516
2018-01-15T13:43:30.393Z,2612
2018-01-15T13:44:39.183Z,2744
2018-01-15T13:45:47.710Z,2824
2018-01-15T13:46:56.502Z,3036
2018-01-15T13:48:05.295Z,3292
2018-01-15T13:49:14.087Z,3340
2018-01-15T13:50:22.882Z,3228
2018-01-15T13:51:31.680Z,3040
2018-01-15T13:52:40.472Z,2792
2018-01-15T13:53:49.269Z,2596
2018-01-15T13:54:58.291Z,2580
2018-01-15T13:56:07.091Z,2616
2018-01-15T13:57:16.416Z,2656
2018-01-15T13:58:25.209Z,2644
2018-01-15T13:59:34.003Z,2612
2018-01-15T14:00:43.075Z,2604
2018-01-15T14:01:51.892Z,2572
2018-01-15T14:03:00.420Z,2368
2018-01-15T14:04:09.485Z,2288
2018-01-15T14:05:18.539Z,2204
2018-01-15T14:06:27.344Z,2092
2018-01-15T14:07:36.149Z,2016
2018-01-15T14:08:44.968Z,1956
2018-01-15T14:09:53.497Z,2132
2018-01-15T14:11:02.025Z,1872
2018-01-15T14:12:10.594Z,1996
2018-01-15T14:13:19.655Z,1612
2018-01-15T14:14:28.716Z,1572
2018-01-15T14:15:37.250Z,1516
2018-01-15T14:16:46.315Z,1176
2018-01-15T14:17:55.108Z,960
2018-01-15T14:19:04.002Z,1096
2018-01-15T14:20:12.529Z,1144
2018-01-15T14:21:21.327Z,1056
2018-01-15T14:22:30.381Z,888
2018-01-15T14:23:39.177Z,952
2018-01-15T14:24:48.245Z,824
2018-01-15T14:25:57.306Z,996
2018-01-15T14:27:06.097Z,832
2018-01-15T14:28:14.644Z,960
2018-01-15T14:29:23.969Z,844
2018-01-15T14:30:32.499Z,588
2018-01-15T14:31:41.423Z,400
2018-01-15T14:32:49.951Z,436
2018-01-15T14:33:59.028Z,488
2018-01-15T14:35:07.556Z,540
2018-01-15T14:36:16.351Z,532
2018-01-15T14:37:25.152Z,580
2018-01-15T14:38:34.221Z,632
2018-01-15T14:39:43.159Z,760
2018-01-15T14:40:51.553Z,828
2018-01-15T14:42:00.081Z,824
2018-01-15T14:43:08.610Z,824
2018-01-15T14:44:17.407Z,596
2018-01-15T14:45:26.201Z,712
2018-01-15T14:46:34.731Z,624
2018-01-15T14:47:43.524Z,520
2018-01-15T14:48:52.314Z,476
2018-01-15T14:50:01.113Z,432
2018-01-15T14:51:09.911Z,348
2018-01-15T14:52:18.708Z,320
2018-01-15T14:53:27.238Z,308
2018-01-15T14:54:36.361Z,304
2018-01-15T14:55:44.934Z,356
2018-01-15T14:56:53.992Z,456
2018-01-15T14:58:02.792Z,448
2018-01-15T14:59:11.591Z,592
2018-01-15T15:00:20.122Z,600
2018-01-15T15:01:28.922Z,656
2018-01-15T15:02:37.994Z,688
2018-01-15T15:03:46.812Z,712
2018-01-15T15:04:55.636Z,640
2018-01-15T15:06:04.178Z,660
2018-01-15T15:07:12.968Z,632
2018-01-15T15:08:22.021Z,632
2018-01-15T15:09:31.080Z,592
2018-01-15T15:10:39.880Z,544
2018-01-15T15:11:48.956Z,516
2018-01-15T15:12:58.028Z,528
2018-01-15T15:14:06.963Z,520
2018-01-15T15:15:15.346Z,460
2018-01-15T15:16:24.137Z,428
2018-01-15T15:17:33.206Z,388
2018-01-15T15:18:41.734Z,364
2018-01-15T15:19:50.529Z,336
2018-01-15T15:20:59.314Z,340
2018-01-15T15:22:08.102Z,320
2018-01-15T15:23:17.417Z,304
2018-01-15T15:24:26.206Z,292
2018-01-15T15:25:35.260Z,268
2018-01-15T15:26:44.053Z,264
2018-01-15T15:27:53.109Z,232
2018-01-15T15:29:02.029Z,236
2018-01-15T15:30:10.801Z,236
2018-01-15T15:31:19.599Z,208
2018-01-15T15:32:28.669Z,212
2018-01-15T15:33:37.741Z,188
2018-01-15T15:34:46.528Z,188
2018-01-15T15:35:55.321Z,184
2018-01-15T15:37:04.380Z,176
2018-01-15T15:38:12.907Z,168
2018-01-15T15:39:22.227Z,156
2018-01-15T15:40:31.281Z,156
2018-01-15T15:41:40.072Z,148
2018-01-15T15:42:48.866Z,140
2018-01-15T15:43:57.658Z,132
2018-01-15T15:45:06.182Z,136
2018-01-15T15:46:14.714Z,128
2018-01-15T15:47:23.518Z,120
2018-01-15T15:48:32.043Z,116
2018-01-15T15:49:41.034Z,120
2018-01-15T15:50:49.559Z,124
2018-01-15T15:51:58.089Z,112
2018-01-15T15:53:07.416Z,108
2018-01-15T15:54:15.942Z,108
2018-01-15T15:55:24.469Z,100
2018-01-15T15:56:33.267Z,96
2018-01-15T15:57:42.326Z,96
2018-01-15T15:58:50.854Z,92
2018-01-15T15:59:59.509Z,88
2018-01-15T16:01:08.335Z,88
2018-01-15T16:02:17.136Z,88
2018-01-15T16:03:25.930Z,84
2018-01-15T16:04:34.721Z,84
2018-01-15T16:05:43.508Z,84
2018-01-15T16:06:52.038Z,80
2018-01-15T16:08:00.838Z,80
2018-01-15T16:09:09.365Z,80
2018-01-15T16:10:18.439Z,76